Last 24 Hours

Red Mountain

10 Minute Data | America/Los_Angeles
as of 5/8/26 2:51 AM PDT
Date & Time Temp (°F) Dew Pt (°F) RH (%) Wind Spd (mph) Wind Dir (°) Wind Gust (mph) Wind Gst Dir (°) Daily Max Temp (°F) Daily Min Temp (°F)
5/8/26 - 0250 64.6 41.5 43 4.9 W | 259 6.1 W | 260 65.2 64.4
5/8/26 - 0240 64.9 41.6 42 3.5 WSW | 257 5.2 W | 275 65.2 64.4
5/8/26 - 0230 65.0 41.5 42 5.8 WNW | 284 8.2 W | 274 65.2 64.4
5/8/26 - 0220 64.5 41.9 44 5.4 WNW | 282 6.7 WNW | 292 64.9 64.4
5/8/26 - 0210 64.7 42.5 44 7.1 W | 276 8.0 WNW | 283 64.9 64.6
5/8/26 - 0200 64.8 42.3 44 7.6 WNW | 285 9.1 WNW | 284 64.9 64.6
5/8/26 - 0150 64.9 42.1 43 7.0 W | 279 9.1 W | 278 64.9 64.6
5/8/26 - 0140 64.9 42.0 43 6.7 WNW | 282 7.9 WNW | 284 64.9 64.6
5/8/26 - 0130 64.9 41.8 43 6.3 WNW | 293 7.1 NW | 305 64.9 64.6
5/8/26 - 0120 64.8 41.4 42 7.1 NW | 307 8.4 NW | 309 64.9 64.6
5/8/26 - 0110 64.7 41.1 42 7.8 NW | 310 8.9 WNW | 302 64.8 64.6
5/8/26 - 0100 64.7 40.6 41 8.2 NW | 322 9.2 NW | 319 73.4 58.5
5/8/26 - 0050 65.0 40.4 40 8.4 NW | 318 9.4 NW | 312 73.4 58.5
5/8/26 - 0040 65.2 40.1 40 8.1 NW | 316 9.5 NW | 315 73.4 58.5
5/8/26 - 0030 65.2 39.5 39 7.6 NW | 319 8.7 NW | 314 73.4 58.5
5/8/26 - 0020 65.3 38.9 38 6.6 NW | 317 8.6 NW | 307 73.4 58.5
5/8/26 - 0010 65.3 38.0 37 5.9 NNW | 331 7.8 NNW | 333 73.4 58.5
5/8/26 - 0000 65.6 37.8 36 8.0 NNW | 332 10.0 NW | 323 73.4 58.5
5/7/26 - 2350 65.8 37.7 36 8.6 NNW | 327 11.9 NW | 326 73.4 58.5
5/7/26 - 2340 65.8 37.4 35 9.6 NNW | 332 12.7 NNW | 334 73.4 58.5
5/7/26 - 2330 65.4 37.4 35 7.9 NNW | 340 12.3 NW | 321 73.4 58.5
5/7/26 - 2320 65.2 37.5 36 6.7 NNW | 337 9.1 NW | 322 73.4 58.5
5/7/26 - 2310 65.3 37.2 35 6.8 NNW | 335 10.2 NNW | 334 73.4 58.5
5/7/26 - 2300 64.5 38.3 38 6.0 N | 357 8.5 N | 5 73.4 58.5
5/7/26 - 2250 64.8 38.6 38 5.2 N | 2 8.8 NNW | 335 73.4 58.5
5/7/26 - 2240 65.3 38.7 37 5.3 N | 359 8.1 NNW | 341 73.4 58.5
5/7/26 - 2230 65.6 38.2 36 6.2 NNW | 346 8.2 NNW | 347 73.4 58.5
5/7/26 - 2220 66.0 37.7 35 7.9 NNW | 339 10.5 NNW | 335 73.4 58.5
5/7/26 - 2210 65.8 38.2 36 8.0 NNW | 341 12.1 NNW | 333 73.4 58.5
5/7/26 - 2200 65.8 38.1 36 8.6 NNW | 342 10.7 NNW | 347 73.4 58.5
5/7/26 - 2150 66.2 37.6 35 9.3 NNW | 336 12.9 NW | 326 73.4 58.5
5/7/26 - 2140 66.1 37.7 35 8.6 NNW | 331 11.4 NW | 320 73.4 58.5
5/7/26 - 2130 65.8 38.9 37 7.9 NNW | 344 11.0 NNW | 340 73.4 58.5
5/7/26 - 2120 65.9 38.3 36 9.0 NNW | 338 12.8 NNW | 338 73.4 58.5
5/7/26 - 2110 65.5 39.5 38 10.7 NNW | 347 12.7 NNW | 348 73.4 58.5
5/7/26 - 2100 65.4 40.6 40 11.0 NNW | 347 12.6 N | 349 73.4 58.5
5/7/26 - 2050 65.5 41.1 41 12.1 NNW | 342 14.5 NNW | 343 73.4 58.5
5/7/26 - 2040 65.0 43.6 46 12.0 NNW | 341 14.0 NNW | 343 73.4 58.5
5/7/26 - 2030 65.0 44.3 47 12.3 NNW | 345 13.8 NNW | 344 73.4 58.5
5/7/26 - 2020 65.4 42.1 43 12.2 NNW | 346 14.2 NNW | 342 73.4 58.5
5/7/26 - 2010 65.3 42.6 44 11.8 NNW | 340 13.7 NNW | 342 73.4 58.5
5/7/26 - 2000 65.0 44.4 47 12.0 NNW | 341 14.1 NNW | 336 73.4 58.5
5/7/26 - 1950 64.6 46.4 52 12.0 NNW | 340 14.7 NNW | 335 73.4 58.5
5/7/26 - 1940 64.8 47.0 53 12.1 NNW | 345 14.2 NNW | 328 73.4 58.5
5/7/26 - 1930 65.2 47.2 52 12.8 NNW | 347 15.7 NNW | 346 73.4 58.5
5/7/26 - 1920 65.8 45.3 47 13.9 NNW | 336 17.3 NNW | 333 73.4 58.5
5/7/26 - 1910 66.2 45.5 47 14.8 NNW | 340 18.3 NNW | 338 73.4 58.5
5/7/26 - 1900 66.8 44.5 45 14.0 NNW | 334 18.4 NNW | 340 73.4 58.5
5/7/26 - 1850 67.0 45.4 46 15.1 NW | 326 19.8 NW | 319 73.4 58.5
5/7/26 - 1840 67.1 47.1 49 14.4 NW | 318 18.5 NW | 321 73.4 58.5
5/7/26 - 1830 67.5 47.8 49 11.8 NW | 309 16.4 NW | 307 73.4 58.5
5/7/26 - 1820 67.8 50.1 53 12.2 WNW | 294 17.2 WNW | 290 73.4 58.5
5/7/26 - 1810 67.7 50.4 54 12.9 WNW | 296 17.9 NW | 313 73.4 58.5
5/7/26 - 1800 67.8 48.8 50 14.0 NW | 305 19.6 NW | 315 73.4 58.5
5/7/26 - 1750 68.0 48.1 49 17.6 WNW | 303 22.9 NW | 311 73.4 58.5
5/7/26 - 1740 68.7 50.1 52 13.1 W | 281 20.7 WNW | 295 73.4 58.5
5/7/26 - 1730 68.9 50.6 52 12.8 W | 268 18.9 WNW | 283 73.4 58.5
5/7/26 - 1720 68.8 51.0 53 12.7 W | 268 19.3 W | 259 73.4 58.5
5/7/26 - 1710 69.5 51.3 52 13.8 W | 268 19.3 W | 267 73.4 58.5
5/7/26 - 1700 69.7 51.4 52 13.7 W | 278 20.4 W | 276 73.4 58.5
5/7/26 - 1650 69.8 51.2 52 13.6 W | 270 20.0 WNW | 286 73.4 58.5
5/7/26 - 1640 70.1 51.5 52 13.7 W | 275 21.1 WNW | 290 73.4 58.5
5/7/26 - 1630 69.9 51.4 52 13.4 W | 261 21.1 WSW | 255 73.4 58.5
5/7/26 - 1620 70.4 50.9 50 14.2 W | 271 20.0 WNW | 285 73.4 58.5
5/7/26 - 1610 70.0 50.3 50 14.8 W | 271 22.0 W | 273 73.4 58.5
5/7/26 - 1600 70.6 50.1 48 15.5 W | 261 20.9 W | 262 73.4 58.5
5/7/26 - 1550 71.2 50.2 47 13.2 W | 266 22.3 WSW | 258 73.4 58.5
5/7/26 - 1540 71.3 49.9 47 13.8 W | 262 22.2 W | 259 73.4 58.5
5/7/26 - 1530 71.3 49.4 46 16.5 WSW | 258 25.4 W | 264 73.4 58.5
5/7/26 - 1520 71.2 47.4 43 14.3 WSW | 257 25.0 WSW | 256 73.4 58.5
5/7/26 - 1510 71.7 48.3 43 16.1 WSW | 256 23.9 W | 270 73.4 58.5
5/7/26 - 1500 71.7 43.1 36 12.8 W | 274 20.3 WNW | 282 73.4 58.5
5/7/26 - 1450 71.4 44.2 38 16.6 WNW | 291 26.3 WNW | 289 73.2 58.5
5/7/26 - 1440 71.3 42.4 35 16.1 WNW | 290 23.7 WNW | 288 73.2 58.5
5/7/26 - 1430 71.3 44.1 38 15.3 WNW | 285 21.6 NW | 313 73.2 58.5
5/7/26 - 1420 71.8 41.7 34 15.1 W | 281 21.7 WNW | 284 73.2 58.5
5/7/26 - 1410 71.4 40.9 33 16.0 W | 278 21.8 WNW | 291 72.8 58.5
5/7/26 - 1400 70.9 42.8 36 13.4 W | 266 22.9 W | 270 71.5 58.5
5/7/26 - 1350 70.4 42.0 36 15.6 W | 274 22.5 W | 274 71.1 58.5
5/7/26 - 1340 70.3 43.5 38 15.9 W | 274 21.8 W | 274 71.1 58.5
5/7/26 - 1330 69.6 42.6 38 14.3 W | 272 19.2 WNW | 282 71.1 58.5
5/7/26 - 1320 70.2 43.4 38 13.2 W | 275 20.4 W | 277 71.1 58.5
5/7/26 - 1310 70.0 42.8 37 13.3 W | 275 18.9 W | 271 71.1 58.5
5/7/26 - 1300 69.7 41.2 36 14.0 W | 281 19.1 WNW | 284 71.1 58.5
5/7/26 - 1250 69.0 40.8 36 13.6 WNW | 285 19.6 WNW | 286 71.1 58.5
5/7/26 - 1240 69.3 41.5 36 12.9 W | 276 18.0 WNW | 282 71.1 58.5
5/7/26 - 1230 69.6 41.8 36 12.4 W | 278 18.8 WNW | 282 71.1 58.5
5/7/26 - 1220 69.7 41.9 36 11.2 WNW | 284 16.7 WNW | 282 71.1 58.5
5/7/26 - 1210 69.0 42.6 38 10.8 WNW | 292 15.8 WNW | 298 71.1 58.5
5/7/26 - 1200 68.8 42.4 38 10.4 WNW | 292 14.7 WNW | 302 71.1 58.5
5/7/26 - 1150 68.2 42.8 40 10.4 WNW | 284 15.8 WNW | 287 71.1 58.5
5/7/26 - 1140 68.4 43.3 40 9.3 WNW | 286 14.0 WNW | 288 71.1 58.5
5/7/26 - 1130 68.4 43.6 41 8.4 WNW | 289 12.8 WNW | 290 71.1 58.5
5/7/26 - 1120 67.7 42.7 40 7.9 WNW | 287 11.6 WNW | 291 71.1 58.5
5/7/26 - 1110 67.8 42.7 40 7.1 W | 280 11.4 WNW | 285 71.1 58.5
5/7/26 - 1100 67.7 44.3 43 6.8 W | 270 9.9 WSW | 252 71.1 58.5
5/7/26 - 1050 67.3 44.7 44 6.8 W | 263 9.8 W | 266 71.1 58.5
5/7/26 - 1040 68.0 44.8 43 6.7 W | 266 9.6 W | 267 71.1 58.5
5/7/26 - 1030 68.6 41.4 37 6.2 W | 273 9.9 W | 268 71.1 58.5
5/7/26 - 1020 68.5 41.4 37 4.5 W | 269 7.4 W | 271 71.1 58.5
5/7/26 - 1010 67.6 42.5 40 4.4 W | 266 7.3 WSW | 251 71.1 58.5
5/7/26 - 1000 67.6 42.3 40 4.5 W | 263 7.5 WSW | 255 71.1 58.5
5/7/26 - 0950 68.1 41.0 37 4.1 W | 264 6.4 W | 272 71.1 58.5
5/7/26 - 0940 69.3 39.3 33 2.5 WNW | 300 5.0 WNW | 289 71.1 58.5
5/7/26 - 0930 69.6 37.6 31 1.5 NNW | 332 4.0 NNW | 328 71.1 58.5
5/7/26 - 0920 70.1 35.5 28 2.9 N | 2 5.7 NNE | 31 71.1 58.5
5/7/26 - 0910 70.3 34.2 26 4.1 N | 11 6.8 NNW | 344 71.1 58.5
5/7/26 - 0900 69.4 32.6 26 4.4 N | 356 7.0 N | 1 69.8 58.5
5/7/26 - 0850 68.9 31.9 25 5.0 N | 8 7.6 NNE | 15 69.3 58.5
5/7/26 - 0840 68.9 32.5 26 5.7 N | 10 8.3 NNE | 18 69.3 58.5
5/7/26 - 0830 68.9 32.2 26 6.3 NNE | 17 8.3 NNE | 28 69.3 58.5
5/7/26 - 0820 68.7 32.2 26 5.6 NNE | 18 8.0 N | 9 69.0 58.5
5/7/26 - 0810 68.5 32.8 27 5.5 NNE | 21 7.5 NNE | 19 68.8 58.5
5/7/26 - 0800 68.3 32.2 26 6.1 NNE | 19 8.1 NNE | 15 68.4 58.5
5/7/26 - 0750 67.7 31.3 26 6.4 NNE | 20 7.8 N | 11 68.1 58.5
5/7/26 - 0740 67.3 30.9 26 7.1 N | 11 8.8 N | 5 67.6 58.5
5/7/26 - 0730 67.5 31.0 26 7.6 N | 4 8.9 N | 3 67.6 58.5
5/7/26 - 0720 67.2 30.4 25 7.6 N | 2 9.9 N | 354 67.6 58.5
5/7/26 - 0710 66.6 30.3 26 8.6 N | 2 10.0 N | 0 66.9 58.5
5/7/26 - 0700 66.6 30.3 26 8.9 N | 5 10.5 N | 5 66.9 58.5
5/7/26 - 0650 66.3 30.3 26 9.3 N | 3 11.2 N | 0 66.9 58.5
5/7/26 - 0640 66.3 30.3 26 9.4 N | 3 10.7 N | 3 66.9 58.5
5/7/26 - 0630 66.2 30.6 26 10.0 N | 1 12.0 N | 0 66.9 58.5
5/7/26 - 0620 66.2 30.4 26 10.2 N | 359 11.2 N | 0 66.9 58.5
5/7/26 - 0610 65.5 30.9 27 10.5 N | 1 12.6 N | 0 66.1 58.5
5/7/26 - 0600 65.5 31.2 28 10.2 N | 357 13.1 N | 0 66.1 58.5
5/7/26 - 0550 65.4 31.1 28 10.3 N | 352 13.0 NNW | 348 66.1 58.5
5/7/26 - 0540 65.1 31.4 28 11.5 N | 357 14.9 N | 351 65.4 58.5
5/7/26 - 0530 64.8 31.8 29 10.9 N | 356 13.8 NNW | 348 65.3 58.5
5/7/26 - 0520 63.9 32.8 31 13.0 N | 354 15.7 NNW | 346 65.0 58.5
5/7/26 - 0510 64.3 32.9 31 11.1 N | 360 15.6 NNW | 342 65.0 58.5
5/7/26 - 0500 64.6 32.5 30 11.2 N | 6 13.3 N | 353 65.0 58.5
5/7/26 - 0450 63.6 33.8 33 12.4 N | 1 14.0 N | 1 64.6 58.5
5/7/26 - 0440 62.8 34.9 35 11.4 N | 2 13.9 N | 354 64.6 58.5
5/7/26 - 0430 62.6 35.7 37 10.6 N | 3 12.3 N | 0 64.6 58.5
5/7/26 - 0420 63.5 34.4 34 11.6 N | 357 14.0 N | 351 64.6 58.5
5/7/26 - 0410 63.9 34.5 33 11.3 N | 354 12.6 NNW | 346 64.6 58.5
5/7/26 - 0400 61.9 37.1 40 10.5 N | 3 12.1 N | 354 63.3 58.5
5/7/26 - 0350 60.8 37.5 42 9.7 N | 8 11.0 N | 0 61.2 58.5
5/7/26 - 0340 60.0 37.4 43 10.0 N | 3 11.0 N | 2 60.6 58.5
5/7/26 - 0330 59.5 38.2 45 10.2 N | 6 10.7 N | 7 60.6 58.5
5/7/26 - 0320 59.3 38.5 46 9.6 N | 357 10.7 N | 8 60.6 58.5
5/7/26 - 0310 59.5 38.4 46 9.2 N | 349 9.8 N | 350 60.6 58.5
5/7/26 - 0300 59.4 38.4 46 10.0 N | 351 11.2 NNW | 348 60.6 58.5
5/7/26 - 0250 59.3 39.3 47 9.2 NNW | 339 10.3 NNW | 340 60.6 58.5
Max 71.8 51.5 54 17.6 - 26.3 - 73.4 64.6
Avg 66.8 40.5 39 10.0 - 13.5 - - -
Min 59.3 30.3 25 1.5 - 4.0 - 60.6 58.5